Time;durP1;ratioP1;P1;durP2;ratioP2;P2;SDS_P1;SDS_P2;PMS_P1;PMS_P2;Temp;Humidity;BMP_temperature;BMP_pressure;BME280_temperature;BME280_humidity;BME280_pressure;Samples;Min_cycle;Max_cycle;Signal;HPM_P1;HPM_P2
2022/05/14 00:00:50;;;;;;;9.35;1.52;;;;;;;;;;5282959;28;20056;-68
2022/05/14 00:03:21;;;;;;;8.35;1.63;;;;;;;;;;5281495;28;20258;-67
2022/05/14 00:05:56;;;;;;;8.60;1.70;;;;;;;;;;5282540;28;20290;-69
2022/05/14 00:08:28;;;;;;;10.52;1.80;;;;;;;;;;5281931;28;20027;-68
2022/05/14 00:13:50;;;;;;;9.60;1.60;;;;;;;;;;5282744;28;20017;-69
2022/05/14 00:16:23;;;;;;;5.03;1.27;;;;;;;;;;5280839;28;20024;-68
2022/05/14 00:18:54;;;;;;;10.20;2.03;;;;;;;;;;5282159;28;20049;-68
2022/05/14 00:21:25;;;;;;;5.70;1.33;;;;;;;;;;5281939;28;20137;-68
2022/05/14 00:23:58;;;;;;;6.57;1.85;;;;;;;;;;5281749;28;20024;-68
2022/05/14 00:26:29;;;;;;;8.00;1.77;;;;;;;;;;5281747;28;20074;-68
2022/05/14 00:29:00;;;;;;;10.23;2.47;;;;;;;;;;5282036;28;20017;-68
2022/05/14 00:31:32;;;;;;;13.82;2.47;;;;;;;;;;5280947;28;20351;-68
2022/05/14 00:34:04;;;;;;;7.90;2.03;;;;;;;;;;5282185;28;20020;-68
2022/05/14 00:36:35;;;;;;;10.55;2.20;;;;;;;;;;5281996;28;20012;-68
2022/05/14 00:39:06;;;;;;;9.82;2.55;;;;;;;;;;5281073;28;20022;-68
2022/05/14 00:41:39;;;;;;;8.13;2.38;;;;;;;;;;5281817;28;20025;-68
2022/05/14 00:44:11;;;;;;;9.15;1.98;;;;;;;;;;5280889;28;20734;-68
2022/05/14 00:46:48;;;;;;;7.65;2.30;;;;;;;;;;5281452;28;20025;-68
2022/05/14 00:49:20;;;;;;;9.05;2.35;;;;;;;;;;5281076;28;20013;-68
2022/05/14 00:51:52;;;;;;;6.88;1.98;;;;;;;;;;5281081;28;20052;-68
2022/05/14 00:54:27;;;;;;;9.70;2.70;;;;;;;;;;5281183;28;20036;-69
2022/05/14 00:57:00;;;;;;;10.23;2.05;;;;;;;;;;5281847;28;20347;-69
2022/05/14 00:59:31;;;;;;;9.77;2.30;;;;;;;;;;5280634;28;20056;-69
2022/05/14 01:02:04;;;;;;;8.95;2.78;;;;;;;;;;5281573;28;20055;-69
2022/05/14 01:04:38;;;;;;;7.65;2.03;;;;;;;;;;5280556;28;20016;-67
2022/05/14 01:07:15;;;;;;;7.25;2.10;;;;;;;;;;5280704;28;20024;-68
2022/05/14 01:09:49;;;;;;;8.82;2.25;;;;;;;;;;5281242;28;20021;-68
2022/05/14 01:12:21;;;;;;;10.77;2.03;;;;;;;;;;5280226;28;20459;-68
2022/05/14 01:14:53;;;;;;;8.23;1.40;;;;;;;;;;5281489;28;20426;-68
2022/05/14 01:17:24;;;;;;;9.80;2.10;;;;;;;;;;5280763;28;20033;-69
2022/05/14 01:19:55;;;;;;;7.75;1.95;;;;;;;;;;5280551;28;20067;-68
2022/05/14 01:22:33;;;;;;;10.77;2.10;;;;;;;;;;5280958;28;20421;-68
2022/05/14 01:28:09;;;;;;;8.20;1.83;;;;;;;;;;5280578;28;20028;-68
2022/05/14 01:30:50;;;;;;;8.93;2.67;;;;;;;;;;5281257;28;20369;-68
2022/05/14 01:33:22;;;;;;;8.77;1.75;;;;;;;;;;5279990;28;20021;-68
2022/05/14 01:35:53;;;;;;;7.50;2.45;;;;;;;;;;5281297;28;20051;-69
2022/05/14 01:38:25;;;;;;;7.38;1.30;;;;;;;;;;5280973;28;20035;-68
2022/05/14 01:40:56;;;;;;;5.85;1.27;;;;;;;;;;5280733;28;20066;-68
2022/05/14 01:43:28;;;;;;;7.63;2.13;;;;;;;;;;5280401;28;20028;-68
2022/05/14 01:45:59;;;;;;;9.63;1.48;;;;;;;;;;5281038;28;20366;-68
2022/05/14 01:48:30;;;;;;;12.00;1.38;;;;;;;;;;5279639;28;20017;-68
2022/05/14 01:51:02;;;;;;;7.85;1.00;;;;;;;;;;5281152;28;20472;-68
2022/05/14 01:53:33;;;;;;;7.32;1.45;;;;;;;;;;5281009;28;20023;-69
2022/05/14 01:56:04;;;;;;;8.27;1.10;;;;;;;;;;5280439;28;20020;-69
2022/05/14 01:58:38;;;;;;;6.00;0.90;;;;;;;;;;5280579;28;20283;-69
2022/05/14 02:01:12;;;;;;;5.65;1.17;;;;;;;;;;5279909;28;20020;-68
2022/05/14 02:03:45;;;;;;;8.18;1.63;;;;;;;;;;5280728;28;20020;-69
2022/05/14 02:06:17;;;;;;;7.07;0.88;;;;;;;;;;5280801;28;20036;-69
2022/05/14 02:08:48;;;;;;;8.65;0.80;;;;;;;;;;5279925;28;20019;-69
2022/05/14 02:11:21;;;;;;;11.27;1.52;;;;;;;;;;5280318;28;20605;-68
2022/05/14 02:13:53;;;;;;;13.52;1.30;;;;;;;;;;5281176;28;20020;-68
2022/05/14 02:16:24;;;;;;;7.35;1.15;;;;;;;;;;5281102;28;20387;-68
2022/05/14 02:18:55;;;;;;;6.90;1.20;;;;;;;;;;5284721;28;20201;-68
2022/05/14 02:21:28;;;;;;;6.22;0.90;;;;;;;;;;5284068;28;20028;-68
2022/05/14 02:24:00;;;;;;;7.63;0.90;;;;;;;;;;5283801;28;20410;-68
2022/05/14 02:26:31;;;;;;;6.35;1.15;;;;;;;;;;5283967;28;20028;-69
2022/05/14 02:29:02;;;;;;;10.20;1.20;;;;;;;;;;5284542;28;20477;-69
2022/05/14 02:31:33;;;;;;;5.85;1.35;;;;;;;;;;5283296;28;20045;-68
2022/05/14 02:34:05;;;;;;;7.70;1.30;;;;;;;;;;5284264;28;20024;-69
2022/05/14 02:36:36;;;;;;;3.83;0.88;;;;;;;;;;5283721;28;20112;-69
2022/05/14 02:39:07;;;;;;;7.65;1.60;;;;;;;;;;5284259;28;20016;-69
2022/05/14 02:41:38;;;;;;;7.64;0.86;;;;;;;;;;5284216;28;20032;-69
2022/05/14 02:44:09;;;;;;;5.45;0.90;;;;;;;;;;5283216;28;20021;-69
2022/05/14 02:46:40;;;;;;;4.38;0.88;;;;;;;;;;5283804;28;20286;-68
2022/05/14 02:49:11;;;;;;;7.28;1.48;;;;;;;;;;5283881;28;20263;-68
2022/05/14 02:51:43;;;;;;;4.35;0.80;;;;;;;;;;5283244;28;20267;-68
2022/05/14 02:54:14;;;;;;;9.63;1.48;;;;;;;;;;5283915;28;20255;-68
2022/05/14 02:56:45;;;;;;;6.38;0.98;;;;;;;;;;5283756;28;20360;-68
2022/05/14 02:59:16;;;;;;;4.85;0.95;;;;;;;;;;5282815;28;20596;-68
2022/05/14 03:01:50;;;;;;;6.93;1.13;;;;;;;;;;5283750;28;20021;-68
2022/05/14 03:04:24;;;;;;;5.28;0.90;;;;;;;;;;5283393;28;20048;-68
2022/05/14 03:06:56;;;;;;;6.32;1.27;;;;;;;;;;5283623;28;20021;-68
2022/05/14 03:09:27;;;;;;;7.20;0.93;;;;;;;;;;5283173;28;20036;-69
2022/05/14 03:11:58;;;;;;;7.63;1.10;;;;;;;;;;5283290;28;20059;-69
2022/05/14 03:14:30;;;;;;;7.38;1.45;;;;;;;;;;5283017;28;20768;-69
2022/05/14 03:17:01;;;;;;;6.72;1.30;;;;;;;;;;5283539;28;20379;-68
2022/05/14 03:19:34;;;;;;;5.30;0.93;;;;;;;;;;5282273;28;20060;-68
2022/05/14 03:22:06;;;;;;;4.88;1.10;;;;;;;;;;5283073;28;20107;-69
2022/05/14 03:24:37;;;;;;;6.65;1.60;;;;;;;;;;5283237;28;20488;-69
2022/05/14 03:27:08;;;;;;;9.80;1.45;;;;;;;;;;5282153;28;20483;-68
2022/05/14 03:29:40;;;;;;;5.53;1.10;;;;;;;;;;5283321;28;20021;-69
2022/05/14 03:32:11;;;;;;;9.32;1.55;;;;;;;;;;5283196;28;20410;-69
2022/05/14 03:34:42;;;;;;;8.07;1.20;;;;;;;;;;5282426;28;20017;-69
2022/05/14 03:37:13;;;;;;;4.65;1.17;;;;;;;;;;5283388;28;20289;-69
2022/05/14 03:39:44;;;;;;;7.43;1.35;;;;;;;;;;5282616;28;20017;-68
2022/05/14 03:42:16;;;;;;;6.85;1.00;;;;;;;;;;5283195;28;20346;-69
2022/05/14 03:44:48;;;;;;;6.55;1.55;;;;;;;;;;5282732;28;20263;-69
2022/05/14 03:47:19;;;;;;;3.50;0.90;;;;;;;;;;5281313;28;20438;-68
2022/05/14 03:49:50;;;;;;;8.38;1.08;;;;;;;;;;5282824;28;20207;-68
2022/05/14 03:52:21;;;;;;;5.82;1.20;;;;;;;;;;5282153;28;20684;-68
2022/05/14 03:54:52;;;;;;;3.70;1.38;;;;;;;;;;5281958;28;20270;-68
2022/05/14 03:57:23;;;;;;;7.57;1.05;;;;;;;;;;5281948;28;20266;-68
2022/05/14 03:59:55;;;;;;;6.03;1.45;;;;;;;;;;5282560;28;20358;-69
2022/05/14 04:02:26;;;;;;;7.65;1.27;;;;;;;;;;5281107;28;20024;-68
2022/05/14 04:04:57;;;;;;;4.88;1.50;;;;;;;;;;5282505;28;20301;-69
2022/05/14 04:07:30;;;;;;;7.22;1.25;;;;;;;;;;5281624;28;20318;-68
2022/05/14 04:10:01;;;;;;;6.03;1.10;;;;;;;;;;5281188;28;20278;-68
2022/05/14 04:12:32;;;;;;;5.90;1.20;;;;;;;;;;5282060;28;20492;-68
2022/05/14 04:15:04;;;;;;;5.20;1.20;;;;;;;;;;5281360;28;20404;-69
2022/05/14 04:17:35;;;;;;;10.55;1.75;;;;;;;;;;5281634;28;20016;-68
2022/05/14 04:20:06;;;;;;;5.25;1.38;;;;;;;;;;5281715;28;20200;-69
2022/05/14 04:22:37;;;;;;;6.25;1.35;;;;;;;;;;5280901;28;20052;-69
2022/05/14 04:25:10;;;;;;;7.43;1.58;;;;;;;;;;5281942;28;20043;-69
2022/05/14 04:27:41;;;;;;;5.15;1.33;;;;;;;;;;5281788;28;20618;-69
2022/05/14 04:30:14;;;;;;;13.68;1.92;;;;;;;;;;5280928;28;20020;-69
2022/05/14 04:32:45;;;;;;;10.13;1.88;;;;;;;;;;5281606;28;20017;-68
2022/05/14 04:35:17;;;;;;;7.03;1.70;;;;;;;;;;5281430;28;20025;-68
2022/05/14 04:37:49;;;;;;;5.85;1.80;;;;;;;;;;5280742;28;20081;-68
2022/05/14 04:40:20;;;;;;;7.52;1.56;;;;;;;;;;5280679;28;20032;-69
2022/05/14 04:42:51;;;;;;;7.38;1.48;;;;;;;;;;5281427;28;20099;-69
2022/05/14 04:45:22;;;;;;;6.65;1.30;;;;;;;;;;5280532;28;20050;-69
2022/05/14 04:47:54;;;;;;;8.43;1.73;;;;;;;;;;5281757;28;20031;-68
2022/05/14 04:50:25;;;;;;;7.93;1.50;;;;;;;;;;5280189;28;20020;-67
2022/05/14 04:52:56;;;;;;;5.53;1.33;;;;;;;;;;5281721;28;20027;-68
2022/05/14 04:55:27;;;;;;;11.18;1.60;;;;;;;;;;5280937;28;20012;-69
2022/05/14 04:57:59;;;;;;;10.38;1.50;;;;;;;;;;5280671;28;20021;-68
2022/05/14 05:00:30;;;;;;;6.97;1.67;;;;;;;;;;5281013;28;20028;-68
2022/05/14 05:03:16;;;;;;;8.27;1.50;;;;;;;;;;5281359;28;20096;-67
2022/05/14 05:05:58;;;;;;;8.10;1.42;;;;;;;;;;5280189;28;20444;-68
2022/05/14 05:08:30;;;;;;;7.13;1.45;;;;;;;;;;5280635;28;20017;-69
2022/05/14 05:11:02;;;;;;;6.43;1.50;;;;;;;;;;5280605;28;20024;-68
2022/05/14 05:13:35;;;;;;;12.50;2.15;;;;;;;;;;5280802;28;20024;-68
2022/05/14 05:16:06;;;;;;;10.65;2.78;;;;;;;;;;5280695;28;20027;-68
2022/05/14 05:18:37;;;;;;;8.90;2.20;;;;;;;;;;5279775;28;20048;-69
2022/05/14 05:21:08;;;;;;;13.55;2.45;;;;;;;;;;5280742;28;20270;-68
2022/05/14 05:23:39;;;;;;;12.63;2.20;;;;;;;;;;5280979;28;20070;-69
2022/05/14 05:26:11;;;;;;;9.15;2.70;;;;;;;;;;5279964;28;20071;-68
2022/05/14 05:28:42;;;;;;;8.60;2.08;;;;;;;;;;5280863;28;20275;-69
2022/05/14 05:31:13;;;;;;;10.30;2.85;;;;;;;;;;5280770;28;20741;-69
2022/05/14 05:33:44;;;;;;;10.40;2.33;;;;;;;;;;5280316;28;20380;-69
2022/05/14 05:36:15;;;;;;;7.72;2.92;;;;;;;;;;5280801;28;20024;-67
2022/05/14 05:38:46;;;;;;;11.40;3.15;;;;;;;;;;5280818;28;20274;-68
2022/05/14 05:41:18;;;;;;;12.35;3.20;;;;;;;;;;5279924;28;20356;-69
2022/05/14 05:43:49;;;;;;;8.98;3.15;;;;;;;;;;5281087;28;20283;-68
2022/05/14 05:46:20;;;;;;;9.30;2.95;;;;;;;;;;5279575;28;20455;-68
2022/05/14 05:48:51;;;;;;;11.25;3.67;;;;;;;;;;5281078;28;20392;-68
2022/05/14 05:51:22;;;;;;;14.20;3.72;;;;;;;;;;5283310;28;20274;-69
2022/05/14 05:56:46;;;;;;;14.32;4.60;;;;;;;;;;5284903;28;20270;-69
2022/05/14 05:59:18;;;;;;;14.70;4.25;;;;;;;;;;5285037;28;20027;-69
2022/05/14 06:01:51;;;;;;;15.20;4.18;;;;;;;;;;5284479;28;20025;-69
2022/05/14 06:04:23;;;;;;;9.40;3.65;;;;;;;;;;5284682;28;20009;-69
2022/05/14 06:06:54;;;;;;;9.25;4.13;;;;;;;;;;5284807;28;20515;-69
2022/05/14 06:09:26;;;;;;;14.07;5.13;;;;;;;;;;5283445;28;20012;-69
2022/05/14 06:11:58;;;;;;;13.40;4.65;;;;;;;;;;5284891;28;20468;-69
2022/05/14 06:14:29;;;;;;;12.57;4.60;;;;;;;;;;5283367;28;20145;-69
2022/05/14 06:17:00;;;;;;;15.95;4.50;;;;;;;;;;5284380;28;20016;-69
2022/05/14 06:19:31;;;;;;;14.43;5.03;;;;;;;;;;5284108;28;20317;-69
2022/05/14 06:22:04;;;;;;;12.35;4.15;;;;;;;;;;5283785;28;20286;-69
2022/05/14 06:24:36;;;;;;;15.93;5.00;;;;;;;;;;5284436;28;20400;-69
2022/05/14 06:27:07;;;;;;;14.73;5.05;;;;;;;;;;5284311;28;20476;-70
2022/05/14 06:29:38;;;;;;;16.65;5.85;;;;;;;;;;5283391;28;20114;-69
2022/05/14 06:32:09;;;;;;;15.40;5.00;;;;;;;;;;5284426;28;20271;-69
2022/05/14 06:34:40;;;;;;;16.42;5.80;;;;;;;;;;5283964;28;20349;-69
2022/05/14 06:37:13;;;;;;;14.75;6.47;;;;;;;;;;5283290;28;20279;-68
2022/05/14 06:39:44;;;;;;;13.68;5.70;;;;;;;;;;5283993;28;20277;-68
2022/05/14 06:42:16;;;;;;;20.67;6.40;;;;;;;;;;5283863;28;20103;-69
2022/05/14 06:44:47;;;;;;;24.25;7.90;;;;;;;;;;5283187;28;20266;-69
2022/05/14 06:47:18;;;;;;;19.60;5.87;;;;;;;;;;5283441;28;20028;-69
2022/05/14 06:49:50;;;;;;;19.95;7.55;;;;;;;;;;5283499;28;20709;-68
2022/05/14 06:52:21;;;;;;;14.45;6.13;;;;;;;;;;5283649;28;20645;-69
2022/05/14 06:54:54;;;;;;;20.48;6.53;;;;;;;;;;5284061;28;20263;-68
2022/05/14 06:57:25;;;;;;;24.08;6.20;;;;;;;;;;5283025;28;20028;-69
2022/05/14 06:59:56;;;;;;;17.60;6.35;;;;;;;;;;5284215;28;20086;-69
2022/05/14 07:02:28;;;;;;;22.90;8.13;;;;;;;;;;5282519;28;20017;-68
2022/05/14 07:07:49;;;;;;;13.75;6.03;;;;;;;;;;5284272;28;20041;-70
2022/05/14 07:10:21;;;;;;;18.70;7.03;;;;;;;;;;5283297;28;20372;-68
2022/05/14 07:12:53;;;;;;;18.45;6.65;;;;;;;;;;5283172;28;20017;-68
2022/05/14 07:15:25;;;;;;;16.80;6.57;;;;;;;;;;5283118;28;20024;-69
2022/05/14 07:17:56;;;;;;;17.63;6.78;;;;;;;;;;5283110;28;20024;-68
2022/05/14 07:20:27;;;;;;;15.95;7.07;;;;;;;;;;5282781;28;20066;-68
2022/05/14 07:22:58;;;;;;;18.30;6.32;;;;;;;;;;5283751;28;20028;-69
2022/05/14 07:25:29;;;;;;;15.52;6.28;;;;;;;;;;5281860;28;20032;-69
2022/05/14 07:28:01;;;;;;;21.00;7.87;;;;;;;;;;5283346;28;20267;-69
2022/05/14 07:30:32;;;;;;;14.95;6.93;;;;;;;;;;5282869;28;20263;-69
2022/05/14 07:33:03;;;;;;;19.30;6.85;;;;;;;;;;5282558;28;20454;-69
2022/05/14 07:35:35;;;;;;;21.00;7.30;;;;;;;;;;5283009;28;20016;-69
2022/05/14 07:38:06;;;;;;;21.27;8.02;;;;;;;;;;5283106;28;20316;-69
2022/05/14 07:40:37;;;;;;;17.67;6.93;;;;;;;;;;5272423;28;20318;-68
2022/05/14 07:43:15;;;;;;;15.27;6.28;;;;;;;;;;5279485;28;20021;-68
2022/05/14 07:45:49;;;;;;;17.70;6.22;;;;;;;;;;5280256;28;20112;-69
2022/05/14 07:48:26;;;;;;;17.10;6.38;;;;;;;;;;5282010;28;20944;-70
2022/05/14 07:51:01;;;;;;;19.92;7.15;;;;;;;;;;5282495;28;20418;-71
2022/05/14 07:53:33;;;;;;;19.10;6.85;;;;;;;;;;5281481;28;20055;-69
2022/05/14 07:56:05;;;;;;;18.65;7.22;;;;;;;;;;5282678;28;20467;-68
2022/05/14 07:58:37;;;;;;;21.02;6.90;;;;;;;;;;5283114;28;20494;-68
2022/05/14 08:01:08;;;;;;;18.50;6.70;;;;;;;;;;5281332;28;20127;-68
2022/05/14 08:03:40;;;;;;;16.33;6.57;;;;;;;;;;5282257;28;20048;-68
2022/05/14 08:06:11;;;;;;;22.27;6.82;;;;;;;;;;5282265;28;20036;-69
2022/05/14 08:08:43;;;;;;;20.25;6.53;;;;;;;;;;5281674;28;20037;-67
2022/05/14 08:11:14;;;;;;;19.95;6.47;;;;;;;;;;5282549;28;20024;-68
2022/05/14 08:13:45;;;;;;;14.48;6.68;;;;;;;;;;5282292;28;20054;-68
2022/05/14 08:16:17;;;;;;;18.02;6.78;;;;;;;;;;5281460;28;20277;-70
2022/05/14 08:18:48;;;;;;;17.77;7.85;;;;;;;;;;5281973;28;20101;-70
2022/05/14 08:24:30;;;;;;;16.45;7.10;;;;;;;;;;5280892;28;20899;-69
2022/05/14 08:27:06;;;;;;;16.77;6.03;;;;;;;;;;5282034;28;20041;-71
2022/05/14 08:29:37;;;;;;;18.35;6.30;;;;;;;;;;5281142;28;20027;-70
2022/05/14 08:32:09;;;;;;;22.83;7.18;;;;;;;;;;5281523;28;20025;-70
2022/05/14 08:34:40;;;;;;;18.27;7.22;;;;;;;;;;5281837;28;20017;-71
2022/05/14 08:37:11;;;;;;;21.15;7.20;;;;;;;;;;5281215;28;20278;-71
2022/05/14 08:39:42;;;;;;;18.73;6.15;;;;;;;;;;5281902;28;20267;-70
2022/05/14 08:42:14;;;;;;;16.63;6.72;;;;;;;;;;5280978;28;20016;-71
2022/05/14 08:44:46;;;;;;;17.13;6.60;;;;;;;;;;5281680;28;20355;-70
2022/05/14 08:47:28;;;;;;;21.02;5.95;;;;;;;;;;5281352;28;20287;-70
2022/05/14 08:50:00;;;;;;;15.38;5.35;;;;;;;;;;5280876;28;20013;-70
2022/05/14 08:52:32;;;;;;;14.38;4.85;;;;;;;;;;5281482;28;20031;-70
2022/05/14 08:55:05;;;;;;;12.90;5.25;;;;;;;;;;5281943;28;20028;-70
2022/05/14 08:57:50;;;;;;;13.45;4.95;;;;;;;;;;5280847;28;20021;-71
2022/05/14 09:00:22;;;;;;;14.02;4.82;;;;;;;;;;5281521;28;20432;-70
2022/05/14 09:02:54;;;;;;;16.63;3.97;;;;;;;;;;5281795;28;20024;-70
2022/05/14 09:05:28;;;;;;;23.08;5.72;;;;;;;;;;5280269;28;20325;-70
2022/05/14 09:08:01;;;;;;;14.98;4.22;;;;;;;;;;5281586;28;20476;-70
2022/05/14 09:10:38;;;;;;;14.45;4.65;;;;;;;;;;5280453;28;20016;-70
2022/05/14 09:13:11;;;;;;;13.07;4.38;;;;;;;;;;5281430;28;20736;-70
2022/05/14 09:15:47;;;;;;;13.15;4.25;;;;;;;;;;5281361;28;20020;-71
2022/05/14 09:18:20;;;;;;;13.35;4.20;;;;;;;;;;5280030;28;20099;-70
2022/05/14 09:20:56;;;;;;;17.92;4.78;;;;;;;;;;5281923;28;20545;-71
2022/05/14 09:23:32;;;;;;;15.07;4.70;;;;;;;;;;5281108;28;20020;-69
2022/05/14 09:26:11;;;;;;;13.65;4.70;;;;;;;;;;5280058;28;20037;-70
2022/05/14 09:28:47;;;;;;;14.35;3.25;;;;;;;;;;5281071;28;20016;-70
2022/05/14 09:31:30;;;;;;;15.43;4.18;;;;;;;;;;5280413;28;20020;-70
2022/05/14 09:34:04;;;;;;;15.65;4.50;;;;;;;;;;5281391;28;20352;-70
2022/05/14 09:36:36;;;;;;;12.70;4.07;;;;;;;;;;5280814;28;20107;-70
2022/05/14 09:39:09;;;;;;;13.90;4.50;;;;;;;;;;5280516;28;20486;-70
2022/05/14 09:41:45;;;;;;;16.83;3.97;;;;;;;;;;5280141;28;20108;-69
2022/05/14 09:44:27;;;;;;;15.05;3.95;;;;;;;;;;5281268;28;20017;-70
2022/05/14 09:47:04;;;;;;;12.05;3.80;;;;;;;;;;5280633;28;20480;-69
2022/05/14 09:49:39;;;;;;;16.13;4.50;;;;;;;;;;5280954;28;20016;-70
2022/05/14 09:52:13;;;;;;;12.40;3.45;;;;;;;;;;5280589;28;20082;-69
2022/05/14 09:54:50;;;;;;;17.20;5.25;;;;;;;;;;5280249;28;20106;-73
2022/05/14 09:57:24;;;;;;;18.35;4.35;;;;;;;;;;5280664;28;20110;-73
2022/05/14 09:59:55;;;;;;;13.13;3.47;;;;;;;;;;5280477;28;20028;-74
2022/05/14 10:02:41;;;;;;;15.02;2.92;;;;;;;;;;5280740;28;20432;-73
2022/05/14 10:05:16;;;;;;;11.18;3.50;;;;;;;;;;5280929;28;20028;-72
2022/05/14 10:07:52;;;;;;;11.95;3.28;;;;;;;;;;5280051;28;20518;-73
2022/05/14 10:10:38;;;;;;;10.48;3.55;;;;;;;;;;5280437;28;20124;-71
2022/05/14 10:13:15;;;;;;;11.65;3.88;;;;;;;;;;5280837;28;20055;-74
2022/05/14 10:16:00;;;;;;;12.80;3.80;;;;;;;;;;5279969;28;20406;-72
2022/05/14 10:19:07;;;;;;;12.68;3.50;;;;;;;;;;5280411;28;20026;-72
2022/05/14 10:21:41;;;;;;;17.88;3.83;;;;;;;;;;5236300;28;20107;-73
2022/05/14 10:27:09;;;;;;;18.15;4.57;;;;;;;;;;5280476;28;20060;-72
2022/05/14 10:29:41;;;;;;;20.50;3.53;;;;;;;;;;5280262;28;20041;-73
2022/05/14 10:32:13;;;;;;;14.88;3.28;;;;;;;;;;5280460;28;20421;-73
2022/05/14 10:34:49;;;;;;;10.27;2.80;;;;;;;;;;5279536;28;20325;-73
2022/05/14 10:37:52;;;;;;;10.55;2.70;;;;;;;;;;5281800;28;20026;-71
2022/05/14 10:40:24;;;;;;;12.30;2.55;;;;;;;;;;5261051;28;20036;-70
2022/05/14 10:42:59;;;;;;;12.32;3.03;;;;;;;;;;5283896;28;20024;-69
2022/05/14 10:45:31;;;;;;;13.80;3.17;;;;;;;;;;5282867;28;20036;-69
2022/05/14 10:48:02;;;;;;;16.27;3.17;;;;;;;;;;5284061;28;20044;-69
2022/05/14 10:50:34;;;;;;;12.52;2.63;;;;;;;;;;5283476;28;20048;-69
2022/05/14 10:53:06;;;;;;;14.17;2.93;;;;;;;;;;5284264;28;20008;-70
2022/05/14 10:56:00;;;;;;;9.80;2.70;;;;;;;;;;5283621;28;20690;-68
2022/05/14 10:58:43;;;;;;;13.20;2.67;;;;;;;;;;5282928;28;20414;-69
2022/05/14 11:01:28;;;;;;;11.35;2.40;;;;;;;;;;5283827;28;20372;-69
2022/05/14 11:04:20;;;;;;;12.80;3.20;;;;;;;;;;5283065;28;20016;-70
2022/05/14 11:07:02;;;;;;;10.20;2.78;;;;;;;;;;5283435;28;20053;-70
2022/05/14 11:09:33;;;;;;;12.80;2.67;;;;;;;;;;5283915;28;20016;-70
2022/05/14 11:12:08;;;;;;;14.30;3.58;;;;;;;;;;5283307;28;20035;-69
2022/05/14 11:14:43;;;;;;;14.60;3.30;;;;;;;;;;5283771;28;20029;-69
2022/05/14 11:17:19;;;;;;;11.85;3.05;;;;;;;;;;5282696;28;20078;-69
2022/05/14 11:19:51;;;;;;;16.27;3.95;;;;;;;;;;5283784;28;20052;-68
2022/05/14 11:22:26;;;;;;;23.05;3.28;;;;;;;;;;5283394;28;20380;-69
2022/05/14 11:25:07;;;;;;;12.88;4.25;;;;;;;;;;5283042;28;20020;-69
2022/05/14 11:27:39;;;;;;;13.07;3.65;;;;;;;;;;5283427;28;20073;-69
2022/05/14 11:30:11;;;;;;;16.88;5.03;;;;;;;;;;5283607;28;20016;-69
2022/05/14 11:32:51;;;;;;;11.90;3.45;;;;;;;;;;5281364;28;20119;-70
2022/05/14 11:35:22;;;;;;;10.63;3.30;;;;;;;;;;5281766;28;20020;-70
2022/05/14 11:37:53;;;;;;;16.65;4.20;;;;;;;;;;5282716;28;20062;-70
2022/05/14 11:40:27;;;;;;;10.67;4.17;;;;;;;;;;5283202;28;20052;-70
2022/05/14 11:43:06;;;;;;;14.80;3.95;;;;;;;;;;5283363;28;20023;-69
2022/05/14 11:45:39;;;;;;;14.38;3.58;;;;;;;;;;5282436;28;20029;-69
2022/05/14 11:48:20;;;;;;;17.15;4.53;;;;;;;;;;5282150;28;20348;-69
2022/05/14 11:51:00;;;;;;;9.95;3.40;;;;;;;;;;5283373;28;20482;-70
2022/05/14 11:53:38;;;;;;;10.98;3.78;;;;;;;;;;5281912;28;20036;-70
2022/05/14 11:56:19;;;;;;;15.50;3.72;;;;;;;;;;5282805;28;20376;-70
2022/05/14 11:58:53;;;;;;;15.48;3.40;;;;;;;;;;5282977;28;20044;-70
2022/05/14 12:01:28;;;;;;;12.63;3.08;;;;;;;;;;5281823;28;20063;-70
2022/05/14 12:04:01;;;;;;;10.35;3.10;;;;;;;;;;5283134;28;20024;-70
2022/05/14 12:06:38;;;;;;;10.00;3.30;;;;;;;;;;5281762;28;20025;-70
2022/05/14 12:09:27;;;;;;;10.05;3.47;;;;;;;;;;5282578;28;20412;-70
2022/05/14 12:11:59;;;;;;;17.27;3.42;;;;;;;;;;5282951;28;20406;-71
2022/05/14 12:14:32;;;;;;;12.52;3.08;;;;;;;;;;5281494;28;20020;-71
2022/05/14 12:17:05;;;;;;;9.40;2.63;;;;;;;;;;5282561;28;20020;-71
2022/05/14 12:19:40;;;;;;;9.35;3.38;;;;;;;;;;5282124;28;20047;-69
2022/05/14 12:22:14;;;;;;;14.10;4.43;;;;;;;;;;5281421;28;20082;-69
2022/05/14 12:24:53;;;;;;;12.05;3.60;;;;;;;;;;5282303;28;20517;-70
2022/05/14 12:27:26;;;;;;;12.25;3.67;;;;;;;;;;5280983;28;20029;-70
2022/05/14 12:30:05;;;;;;;9.55;3.83;;;;;;;;;;5282361;28;20032;-70
2022/05/14 12:35:33;;;;;;;11.48;3.40;;;;;;;;;;5281502;28;20029;-70
2022/05/14 12:38:07;;;;;;;9.82;3.00;;;;;;;;;;5281911;28;20021;-70
2022/05/14 12:40:39;;;;;;;10.20;2.92;;;;;;;;;;5281720;28;20060;-69
2022/05/14 12:43:13;;;;;;;21.17;3.78;;;;;;;;;;5281231;28;20421;-68
2022/05/14 12:45:48;;;;;;;10.15;3.30;;;;;;;;;;5281828;28;20025;-69
2022/05/14 12:48:19;;;;;;;10.82;2.58;;;;;;;;;;5280554;28;20104;-70
2022/05/14 12:50:52;;;;;;;14.40;3.13;;;;;;;;;;5282012;28;20535;-70
2022/05/14 12:53:33;;;;;;;14.95;3.53;;;;;;;;;;5281294;28;20366;-69
2022/05/14 12:56:05;;;;;;;10.07;3.13;;;;;;;;;;5280873;28;20027;-70
2022/05/14 12:58:37;;;;;;;13.23;2.97;;;;;;;;;;5281636;28;20540;-69
2022/05/14 13:01:09;;;;;;;13.65;3.40;;;;;;;;;;5280860;28;20028;-68
2022/05/14 13:03:43;;;;;;;8.00;3.05;;;;;;;;;;5280796;28;20383;-68
2022/05/14 13:06:17;;;;;;;12.68;3.45;;;;;;;;;;5281137;28;20035;-68
2022/05/14 13:08:54;;;;;;;10.10;2.70;;;;;;;;;;5281084;28;20028;-68
2022/05/14 13:11:27;;;;;;;12.02;3.65;;;;;;;;;;5280590;28;20479;-68
2022/05/14 13:14:09;;;;;;;15.82;3.30;;;;;;;;;;5281854;28;20043;-68
2022/05/14 13:16:40;;;;;;;12.75;3.00;;;;;;;;;;5280610;28;20046;-68
2022/05/14 13:19:22;;;;;;;13.52;3.33;;;;;;;;;;5279851;28;20422;-69
2022/05/14 13:21:55;;;;;;;30.35;4.40;;;;;;;;;;5281054;28;20016;-69
2022/05/14 13:24:28;;;;;;;13.88;3.38;;;;;;;;;;5279748;28;20034;-69
2022/05/14 13:27:01;;;;;;;9.10;2.88;;;;;;;;;;5281566;28;20384;-69
2022/05/14 13:29:36;;;;;;;11.43;4.07;;;;;;;;;;5281133;28;20032;-68
2022/05/14 13:32:12;;;;;;;12.82;3.30;;;;;;;;;;5280340;28;20043;-69
2022/05/14 13:37:40;;;;;;;11.40;2.90;;;;;;;;;;5280255;28;20467;-69
2022/05/14 13:40:20;;;;;;;12.73;2.67;;;;;;;;;;5281237;28;20040;-69
2022/05/14 13:42:53;;;;;;;17.27;2.97;;;;;;;;;;5281384;28;20040;-69
2022/05/14 13:45:30;;;;;;;13.00;2.58;;;;;;;;;;5280204;28;20048;-70
2022/05/14 13:48:03;;;;;;;14.15;2.90;;;;;;;;;;5281416;28;20022;-69
2022/05/14 13:50:37;;;;;;;9.35;2.45;;;;;;;;;;5280860;28;20017;-69
2022/05/14 13:53:20;;;;;;;18.40;2.75;;;;;;;;;;5280388;28;20050;-69
2022/05/14 13:55:58;;;;;;;11.63;1.60;;;;;;;;;;5281573;28;20058;-69
2022/05/14 13:58:31;;;;;;;10.18;1.70;;;;;;;;;;5280357;28;20475;-70
2022/05/14 14:01:05;;;;;;;12.48;2.08;;;;;;;;;;5281156;28;20031;-70
2022/05/14 14:03:49;;;;;;;10.52;2.08;;;;;;;;;;5280503;28;20020;-69
2022/05/14 14:06:22;;;;;;;14.00;1.88;;;;;;;;;;5279900;28;20098;-68
2022/05/14 14:08:53;;;;;;;9.48;2.17;;;;;;;;;;5281016;28;20013;-68
2022/05/14 14:11:25;;;;;;;12.38;1.63;;;;;;;;;;5281912;28;20565;-71
2022/05/14 14:13:56;;;;;;;11.02;1.73;;;;;;;;;;5284583;28;20021;-71
2022/05/14 14:16:27;;;;;;;12.70;1.70;;;;;;;;;;5284357;28;20054;-71
2022/05/14 14:18:58;;;;;;;10.10;1.90;;;;;;;;;;5284924;28;20226;-70
2022/05/14 14:21:29;;;;;;;8.85;2.00;;;;;;;;;;5283868;28;20471;-70
2022/05/14 14:24:01;;;;;;;11.32;1.95;;;;;;;;;;5284839;28;20024;-70
2022/05/14 14:26:33;;;;;;;10.27;2.00;;;;;;;;;;5284104;28;20134;-70
2022/05/14 14:29:04;;;;;;;8.93;1.42;;;;;;;;;;5283315;28;20522;-70
2022/05/14 14:31:36;;;;;;;10.13;2.03;;;;;;;;;;5284353;28;20107;-71
2022/05/14 14:34:07;;;;;;;11.77;1.60;;;;;;;;;;5283877;28;20024;-71
2022/05/14 14:36:38;;;;;;;9.05;1.58;;;;;;;;;;5284373;28;20785;-71
2022/05/14 14:39:09;;;;;;;9.93;1.55;;;;;;;;;;5284250;28;20017;-70
2022/05/14 14:41:41;;;;;;;14.13;2.08;;;;;;;;;;5283654;28;20058;-70
2022/05/14 14:44:12;;;;;;;11.00;1.77;;;;;;;;;;5284482;28;20087;-71
2022/05/14 14:46:43;;;;;;;10.40;1.63;;;;;;;;;;5284299;28;20113;-71
2022/05/14 14:49:14;;;;;;;13.25;1.58;;;;;;;;;;5283586;28;20016;-71
2022/05/14 14:51:45;;;;;;;10.63;1.50;;;;;;;;;;5284020;28;20073;-71
2022/05/14 14:54:17;;;;;;;11.32;1.83;;;;;;;;;;5284247;28;20263;-72
2022/05/14 14:56:48;;;;;;;13.33;2.20;;;;;;;;;;5283051;28;20020;-71
2022/05/14 14:59:19;;;;;;;11.77;1.90;;;;;;;;;;5283793;28;20629;-71
2022/05/14 15:01:54;;;;;;;13.40;1.60;;;;;;;;;;5283485;28;20040;-71
2022/05/14 15:04:30;;;;;;;9.60;2.00;;;;;;;;;;5283314;28;20023;-71
2022/05/14 15:07:02;;;;;;;10.57;2.50;;;;;;;;;;5284003;28;20036;-72
2022/05/14 15:09:33;;;;;;;11.38;2.38;;;;;;;;;;5282696;28;20016;-72
2022/05/14 15:12:05;;;;;;;10.93;1.90;;;;;;;;;;5283427;28;20528;-72
2022/05/14 15:14:36;;;;;;;6.80;1.55;;;;;;;;;;5283435;28;20024;-72
2022/05/14 15:17:08;;;;;;;12.27;2.20;;;;;;;;;;5283064;28;20024;-72
2022/05/14 15:19:39;;;;;;;12.07;1.73;;;;;;;;;;5283450;28;20048;-71
2022/05/14 15:22:13;;;;;;;11.00;2.30;;;;;;;;;;5283258;28;20020;-71
2022/05/14 15:24:44;;;;;;;13.75;1.95;;;;;;;;;;5282259;28;20024;-72
2022/05/14 15:27:15;;;;;;;10.83;1.77;;;;;;;;;;5283127;28;20832;-73
2022/05/14 15:29:46;;;;;;;11.40;2.58;;;;;;;;;;5283355;28;20376;-72
2022/05/14 15:32:20;;;;;;;9.67;2.30;;;;;;;;;;5276860;28;20369;-73
2022/05/14 15:34:52;;;;;;;13.18;1.92;;;;;;;;;;5283193;28;20061;-73